createdAt,value
2018-11-13T00:03:14.592Z,6.32
2018-11-13T00:13:14.474Z,6.38
2018-11-13T00:23:14.311Z,6.06
2018-11-13T00:33:17.274Z,6.03
2018-11-13T00:43:32.777Z,6.00
2018-11-13T00:53:35.187Z,6.34
2018-11-13T01:03:44.807Z,6.17
2018-11-13T01:13:46.281Z,6.05
2018-11-13T01:23:46.679Z,6.01
2018-11-13T01:33:47.982Z,5.77
2018-11-13T01:43:48.214Z,5.57
2018-11-13T01:53:48.051Z,5.56
2018-11-13T02:03:47.933Z,5.88
2018-11-13T02:13:47.753Z,5.67
2018-11-13T02:23:47.583Z,5.56
2018-11-13T02:33:47.453Z,5.34
2018-11-13T02:43:47.659Z,5.28
2018-11-13T02:53:47.442Z,5.17
2018-11-13T03:03:47.296Z,5.40
2018-11-13T03:13:47.196Z,5.27
2018-11-13T03:23:46.940Z,5.33
2018-11-13T03:33:46.768Z,5.20
2018-11-13T03:43:46.594Z,4.79
2018-11-13T03:53:46.429Z,4.84
2018-11-13T04:03:46.260Z,4.81
2018-11-13T04:13:46.089Z,4.85
2018-11-13T04:23:45.988Z,4.71
2018-11-13T04:33:45.786Z,4.63
2018-11-13T04:43:46.120Z,5.00
2018-11-13T04:53:46.428Z,4.62
2018-11-13T05:03:46.593Z,4.40
2018-11-13T05:13:46.415Z,4.42
2018-11-13T05:23:46.260Z,4.69
2018-11-13T05:33:46.084Z,4.75
2018-11-13T05:43:45.911Z,4.62
2018-11-13T05:53:45.741Z,4.60
2018-11-13T06:03:45.676Z,4.41
2018-11-13T06:13:45.542Z,4.49
2018-11-13T06:23:45.630Z,4.80
2018-11-13T06:33:45.531Z,4.74
2018-11-13T06:43:45.644Z,4.67
2018-11-13T06:54:21.813Z,4.29
2018-11-13T07:04:21.837Z,4.63
2018-11-13T07:14:21.723Z,4.49
2018-11-13T07:24:21.570Z,4.94
2018-11-13T07:34:21.522Z,4.35
2018-11-13T07:44:21.628Z,4.74
2018-11-13T07:54:22.917Z,4.62
2018-11-13T08:04:35.247Z,5.21
2018-11-13T08:14:35.159Z,5.34
2018-11-13T08:24:35.182Z,5.39
2018-11-13T08:34:36.696Z,5.60
2018-11-13T08:44:37.883Z,6.06
2018-11-13T08:54:37.997Z,5.95
2018-11-13T09:04:37.939Z,6.78
2018-11-13T09:14:38.815Z,7.04
2018-11-13T09:24:38.860Z,6.75
2018-11-13T09:34:38.778Z,7.98
2018-11-13T09:44:38.609Z,9.96
2018-11-13T09:54:56.771Z,14.11
2018-11-13T10:05:15.997Z,12.34
2018-11-13T10:15:33.144Z,12.99
2018-11-13T10:25:51.168Z,14.20
2018-11-13T10:36:09.316Z,16.67
2018-11-13T10:46:26.881Z,15.38
2018-11-13T10:56:45.942Z,13.04
2018-11-13T11:07:03.770Z,14.01
2018-11-13T11:17:21.873Z,14.89
2018-11-13T11:27:39.626Z,15.93
2018-11-13T11:37:58.252Z,16.80
2018-11-13T11:48:19.315Z,16.40
2018-11-13T11:58:37.532Z,17.12
2018-11-13T12:08:58.280Z,17.29
2018-11-13T12:19:19.035Z,16.90
2018-11-13T12:29:37.419Z,16.26
2018-11-13T12:39:58.865Z,16.83
2018-11-13T12:50:19.134Z,15.91
2018-11-13T13:00:39.915Z,15.14
2018-11-13T13:11:02.233Z,15.35
2018-11-13T13:21:20.170Z,14.82
2018-11-13T13:31:39.432Z,14.35
2018-11-13T13:41:58.109Z,13.83
2018-11-13T13:52:16.806Z,13.60
2018-11-13T14:02:35.056Z,13.02
2018-11-13T14:12:53.162Z,13.34
2018-11-13T14:23:15.638Z,13.25
2018-11-13T14:33:34.026Z,13.12
2018-11-13T14:43:52.262Z,13.10
2018-11-13T14:54:10.330Z,13.08
2018-11-13T15:04:28.469Z,13.01
2018-11-13T15:14:46.634Z,13.12
2018-11-13T15:25:05.893Z,12.98
2018-11-13T15:35:23.644Z,12.81
2018-11-13T15:45:41.260Z,12.99
2018-11-13T15:55:59.058Z,13.16
2018-11-13T16:06:16.994Z,12.96
2018-11-13T16:16:35.265Z,12.45
2018-11-13T16:26:53.329Z,12.25
2018-11-13T16:37:11.499Z,12.57
2018-11-13T16:47:29.755Z,12.52
2018-11-13T16:57:48.120Z,12.55
2018-11-13T17:08:06.076Z,12.38
2018-11-13T17:18:23.904Z,12.43
2018-11-13T17:28:42.006Z,12.13
2018-11-13T17:39:00.627Z,11.94
2018-11-13T17:49:18.824Z,11.65
2018-11-13T17:59:37.406Z,11.41
2018-11-13T18:09:55.392Z,11.30
2018-11-13T18:20:18.614Z,11.29
2018-11-13T18:30:37.958Z,11.38
2018-11-13T18:40:55.793Z,11.35
2018-11-13T18:51:15.993Z,11.49
2018-11-13T19:01:33.952Z,11.35
2018-11-13T19:11:53.642Z,11.07
2018-11-13T19:22:14.888Z,10.95
2018-11-13T19:32:32.769Z,10.64
2018-11-13T19:42:52.031Z,10.73
2018-11-13T19:53:10.702Z,11.10
2018-11-13T20:03:28.688Z,10.99
2018-11-13T20:13:28.694Z,11.07
2018-11-13T20:23:28.751Z,10.77
2018-11-13T20:33:28.564Z,10.97
2018-11-13T20:43:29.041Z,10.67
2018-11-13T20:53:28.794Z,10.97
2018-11-13T21:03:28.651Z,10.68
2018-11-13T21:13:28.517Z,10.63
2018-11-13T21:23:47.671Z,10.46
2018-11-13T21:34:05.813Z,10.45
2018-11-13T21:44:24.016Z,10.44
2018-11-13T21:54:42.256Z,10.45
2018-11-13T22:05:00.806Z,10.64
2018-11-13T22:15:20.027Z,10.60
2018-11-13T22:25:38.574Z,10.70
2018-11-13T22:35:57.058Z,10.74
2018-11-13T22:46:15.293Z,10.66
2018-11-13T22:56:33.483Z,10.60
2018-11-13T23:06:51.507Z,10.78
2018-11-13T23:17:09.527Z,10.53
2018-11-13T23:27:27.693Z,10.51
2018-11-13T23:37:47.195Z,10.63
2018-11-13T23:48:06.308Z,10.63
2018-11-13T23:58:24.524Z,10.78
